createdAt,value
2023-03-11T00:02:17.230Z,4.37
2023-03-11T00:04:49.929Z,4.40
2023-03-11T00:07:24.090Z,4.41
2023-03-11T00:09:56.771Z,4.44
2023-03-11T00:12:29.356Z,4.35
2023-03-11T00:15:02.037Z,4.45
2023-03-11T00:17:34.888Z,4.44
2023-03-11T00:20:08.983Z,4.38
2023-03-11T00:22:42.978Z,4.44
2023-03-11T00:25:16.039Z,4.44
2023-03-11T00:27:48.819Z,4.51
2023-03-11T00:30:22.138Z,4.40
2023-03-11T00:32:56.046Z,4.40
2023-03-11T00:35:30.768Z,4.41
2023-03-11T00:38:06.542Z,4.43
2023-03-11T00:40:40.204Z,4.35
2023-03-11T00:43:12.946Z,4.35
2023-03-11T00:45:45.907Z,4.36
2023-03-11T00:48:18.944Z,4.44
2023-03-11T00:50:51.786Z,4.34
2023-03-11T00:53:25.898Z,4.40
2023-03-11T00:55:58.531Z,4.26
2023-03-11T00:58:33.319Z,4.34
2023-03-11T01:01:08.513Z,4.21
2023-03-11T01:03:41.140Z,4.24
2023-03-11T01:06:14.370Z,4.26
2023-03-11T01:08:48.349Z,4.36
2023-03-11T01:11:22.391Z,4.31
2023-03-11T01:13:55.128Z,4.33
2023-03-11T01:16:27.936Z,4.31
2023-03-11T01:19:00.700Z,4.23
2023-03-11T01:21:33.603Z,4.22
2023-03-11T01:24:07.926Z,4.30
2023-03-11T01:26:40.782Z,4.19
2023-03-11T01:29:13.351Z,4.28
2023-03-11T01:31:46.255Z,4.32
2023-03-11T01:34:18.920Z,4.26
2023-03-11T01:36:51.576Z,4.25
2023-03-11T01:39:27.297Z,4.26
2023-03-11T01:42:00.172Z,4.24
2023-03-11T01:44:32.957Z,4.24
2023-03-11T01:47:24.518Z,4.20
2023-03-11T01:49:57.428Z,4.19
2023-03-11T01:52:30.366Z,4.12
2023-03-11T01:55:06.292Z,4.15
2023-03-11T01:57:40.124Z,4.19
2023-03-11T02:00:15.684Z,4.20
2023-03-11T02:02:51.296Z,4.22
2023-03-11T02:05:27.005Z,4.20
2023-03-11T02:08:00.168Z,4.17
2023-03-11T02:10:39.335Z,4.16
2023-03-11T02:13:12.740Z,4.15
2023-03-11T02:15:45.525Z,4.20
2023-03-11T02:18:20.302Z,4.19
2023-03-11T02:20:55.706Z,4.18
2023-03-11T02:23:31.621Z,4.23
2023-03-11T02:26:09.154Z,4.15
2023-03-11T02:28:44.220Z,4.19
2023-03-11T02:31:17.355Z,4.22
2023-03-11T02:33:52.274Z,4.20
2023-03-11T02:36:32.158Z,4.27
2023-03-11T02:39:05.674Z,4.19
2023-03-11T02:41:40.619Z,4.24
2023-03-11T02:44:15.451Z,4.26
2023-03-11T02:46:48.496Z,4.27
2023-03-11T02:49:22.074Z,4.21
2023-03-11T02:51:54.663Z,4.25
2023-03-11T02:54:27.438Z,4.25
2023-03-11T02:57:00.713Z,4.32
2023-03-11T02:59:35.135Z,4.21
2023-03-11T03:02:07.759Z,4.23
2023-03-11T03:04:40.505Z,4.22
2023-03-11T03:07:13.247Z,4.21
2023-03-11T03:09:45.934Z,4.09
2023-03-11T03:12:18.565Z,4.12
2023-03-11T03:14:52.528Z,4.22
2023-03-11T03:17:25.118Z,4.19
2023-03-11T03:19:58.032Z,4.24
2023-03-11T03:22:31.010Z,4.18
2023-03-11T03:25:04.028Z,4.15
2023-03-11T03:27:36.830Z,4.26
2023-03-11T03:30:12.835Z,4.22
2023-03-11T03:32:46.140Z,4.21
2023-03-11T03:35:21.702Z,4.12
2023-03-11T03:38:14.179Z,4.06
2023-03-11T03:40:48.298Z,4.08
2023-03-11T03:43:23.699Z,4.11
2023-03-11T03:45:58.320Z,4.05
2023-03-11T03:48:33.514Z,4.07
2023-03-11T03:51:08.664Z,4.05
2023-03-11T03:53:43.816Z,4.03
2023-03-11T03:56:17.775Z,3.99
2023-03-11T03:58:50.717Z,4.02
2023-03-11T04:01:25.519Z,4.04
2023-03-11T04:03:58.336Z,4.10
2023-03-11T04:06:31.496Z,4.03
2023-03-11T04:09:08.724Z,4.03
2023-03-11T04:11:41.308Z,4.00
2023-03-11T04:14:14.565Z,4.01
2023-03-11T04:16:57.714Z,3.93
2023-03-11T04:19:30.426Z,3.91
2023-03-11T04:22:03.852Z,3.92
2023-03-11T04:24:36.460Z,3.93
2023-03-11T04:27:09.345Z,3.96
2023-03-11T04:29:41.984Z,3.94
2023-03-11T04:32:16.057Z,3.93
2023-03-11T04:34:50.723Z,3.90
2023-03-11T04:37:28.163Z,3.91
2023-03-11T04:40:00.938Z,3.91
2023-03-11T04:42:34.734Z,3.90
2023-03-11T04:45:08.720Z,3.90
2023-03-11T04:47:43.159Z,3.85
2023-03-11T04:50:15.878Z,3.82
2023-03-11T04:52:48.618Z,3.74
2023-03-11T04:55:21.297Z,3.76
2023-03-11T04:57:54.153Z,3.76
2023-03-11T05:00:27.320Z,3.71
2023-03-11T05:03:10.452Z,3.73
2023-03-11T05:05:43.468Z,3.76
2023-03-11T05:08:16.371Z,3.74
2023-03-11T05:10:50.494Z,3.68
2023-03-11T05:13:23.455Z,3.70
2023-03-11T05:15:57.944Z,3.72
2023-03-11T05:18:32.586Z,3.69
2023-03-11T05:21:05.598Z,3.76
2023-03-11T05:23:40.332Z,3.60
2023-03-11T05:26:13.140Z,3.64
2023-03-11T05:28:48.661Z,3.67
2023-03-11T05:31:21.444Z,3.63
2023-03-11T05:33:55.473Z,3.59
2023-03-11T05:36:28.008Z,3.57
2023-03-11T05:39:00.648Z,3.56
2023-03-11T05:41:33.994Z,3.53
2023-03-11T05:44:07.183Z,3.55
2023-03-11T05:46:39.913Z,3.56
2023-03-11T05:49:14.427Z,3.53
2023-03-11T05:51:47.165Z,3.46
2023-03-11T05:54:19.839Z,3.48
2023-03-11T05:56:55.839Z,3.47
2023-03-11T05:59:29.143Z,3.41
2023-03-11T06:02:07.277Z,3.50
2023-03-11T06:04:41.399Z,3.43
2023-03-11T06:07:16.133Z,3.33
2023-03-11T06:09:52.002Z,3.37
2023-03-11T06:12:25.016Z,3.33
2023-03-11T06:15:16.303Z,3.32
2023-03-11T06:17:48.941Z,3.40
2023-03-11T06:20:22.965Z,3.33
2023-03-11T06:22:56.567Z,3.32
2023-03-11T06:25:30.305Z,3.23
2023-03-11T06:28:02.801Z,3.26
2023-03-11T06:30:35.909Z,3.13
2023-03-11T06:33:15.577Z,3.15
2023-03-11T06:35:58.633Z,3.11
2023-03-11T06:38:31.493Z,3.08
2023-03-11T06:41:05.015Z,3.11
2023-03-11T06:43:38.894Z,3.14
2023-03-11T06:46:13.333Z,3.11
2023-03-11T06:48:46.767Z,3.04
2023-03-11T06:51:23.558Z,2.95
2023-03-11T06:53:56.187Z,2.91
2023-03-11T06:56:29.969Z,2.94
2023-03-11T06:59:07.926Z,2.92
2023-03-11T07:01:41.157Z,3.04
2023-03-11T07:04:15.244Z,3.00
2023-03-11T07:06:50.012Z,2.98
2023-03-11T07:09:27.759Z,2.92
2023-03-11T07:12:00.625Z,3.00
2023-03-11T07:14:38.106Z,3.01
2023-03-11T07:17:10.758Z,3.06
2023-03-11T07:19:49.752Z,3.06
2023-03-11T07:22:23.727Z,3.08
2023-03-11T07:24:56.279Z,2.99
2023-03-11T07:27:29.359Z,3.05
2023-03-11T07:30:02.056Z,3.13
2023-03-11T07:32:34.799Z,3.16
2023-03-11T07:35:08.082Z,3.23
2023-03-11T07:37:42.044Z,3.21
2023-03-11T07:40:15.066Z,3.22
2023-03-11T07:42:47.982Z,3.35
2023-03-11T07:45:21.476Z,3.32
2023-03-11T07:47:54.264Z,3.40
2023-03-11T07:50:26.791Z,3.39
2023-03-11T07:53:00.927Z,3.43
2023-03-11T07:55:33.624Z,3.33
2023-03-11T07:58:06.277Z,3.33
2023-03-11T08:00:38.855Z,3.43
2023-03-11T08:03:11.446Z,3.42
2023-03-11T08:05:44.057Z,3.45
2023-03-11T08:08:18.036Z,3.73
2023-03-11T08:10:50.853Z,3.69
2023-03-11T08:13:23.429Z,3.74
2023-03-11T08:15:56.109Z,3.75
2023-03-11T08:18:28.802Z,3.75
2023-03-11T08:21:05.099Z,3.77
2023-03-11T08:23:39.246Z,3.80
2023-03-11T08:26:13.589Z,3.81
2023-03-11T08:28:46.238Z,3.85
2023-03-11T08:31:19.598Z,3.94
2023-03-11T08:33:53.906Z,3.93
2023-03-11T08:36:26.584Z,3.95
2023-03-11T08:39:00.708Z,3.98
2023-03-11T08:41:33.686Z,4.00
2023-03-11T08:44:06.386Z,4.05
2023-03-11T08:46:39.463Z,4.03
2023-03-11T08:49:12.055Z,4.12
2023-03-11T08:51:44.571Z,4.09
2023-03-11T08:54:18.834Z,4.18
2023-03-11T08:56:51.485Z,4.25
2023-03-11T08:59:24.107Z,4.22
2023-03-11T09:01:56.679Z,4.15
2023-03-11T09:04:29.330Z,4.19
2023-03-11T09:07:01.912Z,4.26
2023-03-11T09:09:35.926Z,4.26
2023-03-11T09:12:09.107Z,4.28
2023-03-11T09:14:41.725Z,4.29
2023-03-11T09:17:14.479Z,4.41
2023-03-11T09:19:47.044Z,4.39
2023-03-11T09:22:19.658Z,4.41
2023-03-11T09:24:53.826Z,4.45
2023-03-11T09:27:26.410Z,4.46
2023-03-11T09:29:59.268Z,4.52
2023-03-11T09:32:31.960Z,4.55
2023-03-11T09:35:05.046Z,4.56
2023-03-11T09:37:37.987Z,4.58
2023-03-11T09:40:17.335Z,4.64
2023-03-11T09:42:55.308Z,4.63
2023-03-11T09:45:29.031Z,4.75
2023-03-11T09:48:10.039Z,4.84
2023-03-11T09:50:48.716Z,4.98
2023-03-11T09:53:30.218Z,4.94
2023-03-11T09:56:07.072Z,5.24
2023-03-11T09:58:42.246Z,5.34
2023-03-11T10:01:18.157Z,5.38
2023-03-11T10:03:53.003Z,5.41
2023-03-11T10:06:26.950Z,5.51
2023-03-11T10:09:02.294Z,5.63
2023-03-11T10:11:45.457Z,5.63
2023-03-11T10:14:27.240Z,5.79
2023-03-11T10:17:05.222Z,5.84
2023-03-11T10:19:43.400Z,5.88
2023-03-11T10:22:20.805Z,6.05
2023-03-11T10:25:01.609Z,6.08
2023-03-11T10:27:42.072Z,6.15
2023-03-11T10:30:20.282Z,6.16
2023-03-11T10:32:56.479Z,6.23
2023-03-11T10:35:33.740Z,6.30
2023-03-11T10:38:09.302Z,6.29
2023-03-11T10:40:42.856Z,6.34
2023-03-11T10:43:18.728Z,6.53
2023-03-11T10:45:51.725Z,6.65
2023-03-11T10:48:26.066Z,6.70
2023-03-11T10:51:02.563Z,6.69
2023-03-11T10:53:44.753Z,6.96
2023-03-11T10:56:29.301Z,7.09
2023-03-11T10:59:09.402Z,7.24
2023-03-11T11:01:54.716Z,7.33
2023-03-11T11:04:32.232Z,7.34
2023-03-11T11:07:29.519Z,7.44
2023-03-11T11:10:16.794Z,7.70
2023-03-11T11:12:54.090Z,7.84
2023-03-11T11:15:29.730Z,7.99
2023-03-11T11:18:04.534Z,8.18
2023-03-11T11:20:39.005Z,8.21
2023-03-11T11:23:25.493Z,8.50
2023-03-11T11:25:59.563Z,8.68
2023-03-11T11:28:33.193Z,8.74
2023-03-11T11:31:19.992Z,8.91
2023-03-11T11:33:53.583Z,9.03
2023-03-11T11:36:28.699Z,9.23
2023-03-11T11:39:03.338Z,9.21
2023-03-11T11:41:37.752Z,9.31
2023-03-11T11:44:19.121Z,9.45
2023-03-11T11:46:56.908Z,9.76
2023-03-11T11:49:31.591Z,9.80
2023-03-11T11:52:05.820Z,9.90
2023-03-11T11:54:40.525Z,10.07
2023-03-11T11:57:14.634Z,10.03
2023-03-11T11:59:50.147Z,10.30
2023-03-11T12:02:37.988Z,10.58
2023-03-11T12:05:16.386Z,10.61
2023-03-11T12:07:56.076Z,10.27
2023-03-11T12:10:30.490Z,10.53
2023-03-11T12:13:22.788Z,10.97
2023-03-11T12:16:00.103Z,11.14
2023-03-11T12:18:37.846Z,11.38
2023-03-11T12:21:21.731Z,11.52
2023-03-11T12:24:03.949Z,11.63
2023-03-11T12:26:37.774Z,11.97
2023-03-11T12:29:16.263Z,12.03
2023-03-11T12:31:49.368Z,12.19
2023-03-11T12:34:25.197Z,12.26
2023-03-11T12:36:59.487Z,12.33
2023-03-11T12:39:33.846Z,12.40
2023-03-11T12:42:20.112Z,12.37
2023-03-11T12:44:54.258Z,12.48
2023-03-11T12:47:28.832Z,12.46
2023-03-11T12:50:20.249Z,12.68
2023-03-11T12:52:54.997Z,12.82
2023-03-11T12:55:32.899Z,12.72
2023-03-11T12:58:28.561Z,12.88
2023-03-11T13:01:11.006Z,13.00
2023-03-11T13:03:48.624Z,13.14
2023-03-11T13:06:34.343Z,13.15
2023-03-11T13:09:14.587Z,13.11
2023-03-11T13:11:48.590Z,13.24
2023-03-11T13:14:33.817Z,13.19
2023-03-11T13:17:27.309Z,13.25
2023-03-11T13:19:59.995Z,13.15
2023-03-11T13:22:51.087Z,13.37
2023-03-11T13:25:29.287Z,13.45
2023-03-11T13:28:12.212Z,13.35
2023-03-11T13:30:52.566Z,13.44
2023-03-11T13:33:31.387Z,13.50
2023-03-11T13:36:12.566Z,13.34
2023-03-11T13:39:02.058Z,13.46
2023-03-11T13:41:37.365Z,13.50
2023-03-11T13:44:15.807Z,13.54
2023-03-11T13:46:50.658Z,13.53
2023-03-11T13:49:27.426Z,13.53
2023-03-11T13:52:01.276Z,13.45
2023-03-11T13:54:37.055Z,13.49
2023-03-11T13:57:20.253Z,13.46
2023-03-11T13:59:53.996Z,13.38
2023-03-11T14:02:27.624Z,13.46
2023-03-11T14:05:04.774Z,13.53
2023-03-11T14:07:38.605Z,13.46
2023-03-11T14:10:18.108Z,13.52
2023-03-11T14:12:52.733Z,13.46
2023-03-11T14:15:26.984Z,13.46
2023-03-11T14:18:16.768Z,13.44
2023-03-11T14:20:50.783Z,13.41
2023-03-11T14:23:29.565Z,13.37
2023-03-11T14:26:04.781Z,13.32
2023-03-11T14:28:41.616Z,13.29
2023-03-11T14:31:25.694Z,13.31
2023-03-11T14:34:04.212Z,13.26
2023-03-11T14:36:44.683Z,13.16
2023-03-11T14:39:24.109Z,13.09
2023-03-11T14:41:58.710Z,13.02
2023-03-11T14:44:34.130Z,12.91
2023-03-11T14:47:10.159Z,12.83
2023-03-11T14:49:43.234Z,12.62
2023-03-11T14:52:20.352Z,12.51
2023-03-11T14:54:53.799Z,12.41
2023-03-11T14:57:32.976Z,12.34
2023-03-11T15:00:15.016Z,12.31
2023-03-11T15:02:59.410Z,12.22
2023-03-11T15:05:35.978Z,12.19
2023-03-11T15:08:09.236Z,12.08
2023-03-11T15:11:03.129Z,11.98
2023-03-11T15:13:37.141Z,11.94
2023-03-11T15:16:22.882Z,11.88
2023-03-11T15:18:55.643Z,11.82
2023-03-11T15:21:28.441Z,11.72
2023-03-11T15:24:02.188Z,11.65
2023-03-11T15:26:38.390Z,11.60
2023-03-11T15:29:15.546Z,11.52
2023-03-11T15:31:50.040Z,11.49
2023-03-11T15:34:27.888Z,11.43
2023-03-11T15:37:06.350Z,11.42
2023-03-11T15:39:44.053Z,11.37
2023-03-11T15:42:20.800Z,11.33
2023-03-11T15:45:02.137Z,11.25
2023-03-11T15:47:36.215Z,11.15
2023-03-11T15:50:25.225Z,11.12
2023-03-11T15:52:59.419Z,11.07
2023-03-11T15:55:32.673Z,11.03
2023-03-11T15:58:08.079Z,10.95
2023-03-11T16:00:47.440Z,10.93
2023-03-11T16:03:21.448Z,10.86
2023-03-11T16:05:54.191Z,10.81
2023-03-11T16:08:26.797Z,10.73
2023-03-11T16:10:59.653Z,10.71
2023-03-11T16:13:32.266Z,10.68
2023-03-11T16:16:05.372Z,10.59
2023-03-11T16:18:39.521Z,10.51
2023-03-11T16:21:15.444Z,10.51
2023-03-11T16:23:51.957Z,10.42
2023-03-11T16:26:24.926Z,10.37
2023-03-11T16:29:06.203Z,10.30
2023-03-11T16:31:45.611Z,10.29
2023-03-11T16:34:19.860Z,10.27
2023-03-11T16:36:52.572Z,10.19
2023-03-11T16:39:25.144Z,10.16
2023-03-11T16:41:57.838Z,10.14
2023-03-11T16:44:30.363Z,10.13
2023-03-11T16:47:03.248Z,10.09
2023-03-11T16:49:37.273Z,10.06
2023-03-11T16:52:09.963Z,10.02
2023-03-11T16:54:42.760Z,10.02
2023-03-11T16:57:15.466Z,9.98
2023-03-11T16:59:49.424Z,9.91
2023-03-11T17:02:24.415Z,9.91
2023-03-11T17:04:58.659Z,9.86
2023-03-11T17:07:31.468Z,9.82
2023-03-11T17:10:04.898Z,9.79
2023-03-11T17:12:37.763Z,9.73
2023-03-11T17:15:10.803Z,9.70
2023-03-11T17:17:43.429Z,9.68
2023-03-11T17:20:19.315Z,9.59
2023-03-11T17:22:53.324Z,9.52
2023-03-11T17:25:25.892Z,9.49
2023-03-11T17:27:58.806Z,9.46
2023-03-11T17:30:37.076Z,9.45
2023-03-11T17:33:10.412Z,9.42
2023-03-11T17:35:44.423Z,9.33
2023-03-11T17:38:17.295Z,9.29
2023-03-11T17:40:49.875Z,9.24
2023-03-11T17:43:22.818Z,9.20
2023-03-11T17:45:55.413Z,9.14
2023-03-11T17:48:29.032Z,9.13
2023-03-11T17:51:07.188Z,9.10
2023-03-11T17:53:40.255Z,9.06
2023-03-11T17:56:14.180Z,9.01
2023-03-11T17:58:47.167Z,8.97
2023-03-11T18:01:20.901Z,8.96
2023-03-11T18:03:53.890Z,8.91
2023-03-11T18:06:28.279Z,8.91
2023-03-11T18:09:00.932Z,8.90
2023-03-11T18:11:33.731Z,8.86
2023-03-11T18:14:07.300Z,8.78
2023-03-11T18:16:40.261Z,8.75
2023-03-11T18:19:13.130Z,8.71
2023-03-11T18:21:47.361Z,8.70
2023-03-11T18:24:20.830Z,8.61
2023-03-11T18:26:53.397Z,8.61
2023-03-11T18:29:26.180Z,8.58
2023-03-11T18:31:58.878Z,8.53
2023-03-11T18:34:32.511Z,8.59
2023-03-11T18:37:06.713Z,8.53
2023-03-11T18:39:39.867Z,8.48
2023-03-11T18:42:14.301Z,8.45
2023-03-11T18:44:47.025Z,8.40
2023-03-11T18:47:19.692Z,8.37
2023-03-11T18:49:52.400Z,8.33
2023-03-11T18:52:26.499Z,8.29
2023-03-11T18:54:59.173Z,8.26
2023-03-11T18:57:31.765Z,8.23
2023-03-11T19:00:05.220Z,8.21
2023-03-11T19:02:37.787Z,8.14
2023-03-11T19:05:10.884Z,8.15
2023-03-11T19:07:44.853Z,8.10
2023-03-11T19:10:20.164Z,8.11
2023-03-11T19:12:52.890Z,8.04
2023-03-11T19:15:25.698Z,8.01
2023-03-11T19:18:06.716Z,8.00
2023-03-11T19:20:40.081Z,7.99
2023-03-11T19:23:14.016Z,7.92
2023-03-11T19:26:00.767Z,7.91
2023-03-11T19:28:35.575Z,7.91
2023-03-11T19:31:08.366Z,7.87
2023-03-11T19:33:41.286Z,7.84
2023-03-11T19:36:14.259Z,7.81
2023-03-11T19:38:48.978Z,7.76
2023-03-11T19:41:23.189Z,7.76
2023-03-11T19:43:55.820Z,7.79
2023-03-11T19:46:29.761Z,7.76
2023-03-11T19:49:02.364Z,7.73
2023-03-11T19:51:49.144Z,7.75
2023-03-11T19:54:23.338Z,7.67
2023-03-11T19:56:55.955Z,7.61
2023-03-11T19:59:28.586Z,7.61
2023-03-11T20:02:01.375Z,7.63
2023-03-11T20:04:34.148Z,7.63
2023-03-11T20:07:07.069Z,7.56
2023-03-11T20:09:41.069Z,7.58
2023-03-11T20:12:13.816Z,7.56
2023-03-11T20:14:46.833Z,7.58
2023-03-11T20:17:19.684Z,7.50
2023-03-11T20:19:52.469Z,7.52
2023-03-11T20:22:25.150Z,7.51
2023-03-11T20:24:59.187Z,7.47
2023-03-11T20:27:31.769Z,7.47
2023-03-11T20:30:04.958Z,7.43
2023-03-11T20:32:37.888Z,7.46
2023-03-11T20:35:10.786Z,7.46
2023-03-11T20:37:43.476Z,7.41
2023-03-11T20:40:18.893Z,7.38
2023-03-11T20:42:51.818Z,7.34
2023-03-11T20:45:25.866Z,7.36
2023-03-11T20:47:58.941Z,7.35
2023-03-11T20:50:31.960Z,7.32
2023-03-11T20:53:04.743Z,7.34
2023-03-11T20:55:41.739Z,7.31
2023-03-11T20:58:14.463Z,7.31
2023-03-11T21:00:47.072Z,7.30
2023-03-11T21:03:19.744Z,7.31
2023-03-11T21:05:53.124Z,7.33
2023-03-11T21:08:25.959Z,7.28
2023-03-11T21:11:01.673Z,7.25
2023-03-11T21:13:36.151Z,7.24
2023-03-11T21:16:09.575Z,7.25
2023-03-11T21:18:43.001Z,7.27
2023-03-11T21:21:16.430Z,7.25
2023-03-11T21:23:49.746Z,7.27
2023-03-11T21:26:23.710Z,7.23
2023-03-11T21:28:56.675Z,7.24
2023-03-11T21:31:30.068Z,7.22
2023-03-11T21:34:02.907Z,7.21
2023-03-11T21:36:36.072Z,7.21
2023-03-11T21:39:08.869Z,7.17
2023-03-11T21:41:42.951Z,7.18
2023-03-11T21:44:15.594Z,7.17
2023-03-11T21:46:48.393Z,7.13
2023-03-11T21:49:21.061Z,7.18
2023-03-11T21:51:53.662Z,7.13
2023-03-11T21:54:26.285Z,7.16
2023-03-11T21:57:00.643Z,7.09
2023-03-11T21:59:33.542Z,7.05
2023-03-11T22:02:06.338Z,7.10
2023-03-11T22:04:39.254Z,7.05
2023-03-11T22:07:12.169Z,7.03
2023-03-11T22:09:44.922Z,7.07
2023-03-11T22:12:19.028Z,7.05
2023-03-11T22:14:51.803Z,7.03
2023-03-11T22:17:24.457Z,7.05
2023-03-11T22:19:57.398Z,7.07
2023-03-11T22:22:29.998Z,7.02
2023-03-11T22:25:02.749Z,6.98
2023-03-11T22:27:36.671Z,6.98
2023-03-11T22:30:10.022Z,6.95
2023-03-11T22:32:42.731Z,6.96
2023-03-11T22:35:15.556Z,6.97
2023-03-11T22:37:48.142Z,6.90
2023-03-11T22:40:20.797Z,6.98
2023-03-11T22:42:54.683Z,6.97
2023-03-11T22:45:27.613Z,6.84
2023-03-11T22:48:00.732Z,6.87
2023-03-11T22:50:33.684Z,6.82
2023-03-11T22:53:06.725Z,6.86
2023-03-11T22:55:40.152Z,6.83
2023-03-11T22:58:14.088Z,6.89
2023-03-11T23:00:46.933Z,6.91
2023-03-11T23:03:19.625Z,6.90
2023-03-11T23:05:52.421Z,6.80
2023-03-11T23:08:25.145Z,6.78
2023-03-11T23:10:57.794Z,6.74
2023-03-11T23:13:35.528Z,6.72
2023-03-11T23:16:09.293Z,6.70
2023-03-11T23:18:42.268Z,6.79
2023-03-11T23:21:15.501Z,6.74
2023-03-11T23:23:48.478Z,6.72
2023-03-11T23:26:22.062Z,6.78
2023-03-11T23:28:56.563Z,6.64
2023-03-11T23:31:31.775Z,6.71
2023-03-11T23:34:06.493Z,6.62
2023-03-11T23:36:39.090Z,6.64
2023-03-11T23:39:11.885Z,6.67
2023-03-11T23:41:44.571Z,6.69
2023-03-11T23:44:18.530Z,6.69
2023-03-11T23:46:51.423Z,6.77
2023-03-11T23:49:26.403Z,6.70
2023-03-11T23:51:59.073Z,6.67
2023-03-11T23:54:31.672Z,6.64
2023-03-11T23:57:04.787Z,6.70
2023-03-11T23:59:47.173Z,6.69
